sensor_id;sensor_type;location;lat;lon;timestamp;pressure;altitude;pressure_sealevel;temperature;humidity
12879;BME280;20617;49.476;10.986;2023-02-02T00:00:53;98422.22;;;5.47;100.00
12879;BME280;20617;49.476;10.986;2023-02-02T00:02:58;98443.75;;;5.47;100.00
12879;BME280;20617;49.476;10.986;2023-02-02T00:05:03;98442.88;;;5.48;100.00
12879;BME280;20617;49.476;10.986;2023-02-02T00:07:10;98428.25;;;5.47;100.00
12879;BME280;20617;49.476;10.986;2023-02-02T00:09:22;98442.97;;;5.42;100.00
12879;BME280;20617;49.476;10.986;2023-02-02T00:11:28;98438.66;;;5.44;100.00
12879;BME280;20617;49.476;10.986;2023-02-02T00:13:33;98433.50;;;5.42;100.00
12879;BME280;20617;49.476;10.986;2023-02-02T00:15:37;98417.22;;;5.39;100.00
12879;BME280;20617;49.476;10.986;2023-02-02T00:17:42;98429.28;;;5.38;100.00
12879;BME280;20617;49.476;10.986;2023-02-02T00:19:47;98414.63;;;5.39;100.00
12879;BME280;20617;49.476;10.986;2023-02-02T00:21:51;98415.44;;;5.41;100.00
12879;BME280;20617;49.476;10.986;2023-02-02T00:23:59;98422.34;;;5.40;100.00
12879;BME280;20617;49.476;10.986;2023-02-02T00:26:01;98406.91;;;5.39;100.00
12879;BME280;20617;49.476;10.986;2023-02-02T00:28:05;98394.78;;;5.41;100.00
12879;BME280;20617;49.476;10.986;2023-02-02T00:30:10;98411.09;;;5.44;100.00
12879;BME280;20617;49.476;10.986;2023-02-02T00:32:15;98399.88;;;5.45;100.00
12879;BME280;20617;49.476;10.986;2023-02-02T00:34:20;98406.66;;;5.50;100.00
12879;BME280;20617;49.476;10.986;2023-02-02T00:36:26;98416.16;;;5.49;100.00
12879;BME280;20617;49.476;10.986;2023-02-02T00:38:31;98417.06;;;5.47;100.00
12879;BME280;20617;49.476;10.986;2023-02-02T00:40:38;98421.38;;;5.48;100.00
12879;BME280;20617;49.476;10.986;2023-02-02T00:42:43;98423.03;;;5.50;100.00
12879;BME280;20617;49.476;10.986;2023-02-02T00:44:50;98413.56;;;5.49;100.00
12879;BME280;20617;49.476;10.986;2023-02-02T00:47:07;98409.31;;;5.48;100.00
12879;BME280;20617;49.476;10.986;2023-02-02T00:49:12;98427.38;;;5.47;100.00
12879;BME280;20617;49.476;10.986;2023-02-02T00:51:17;98440.34;;;5.45;100.00
12879;BME280;20617;49.476;10.986;2023-02-02T00:53:22;98421.63;;;5.34;100.00
12879;BME280;20617;49.476;10.986;2023-02-02T00:55:26;98414.69;;;5.36;100.00
12879;BME280;20617;49.476;10.986;2023-02-02T00:57:33;98429.41;;;5.31;100.00
12879;BME280;20617;49.476;10.986;2023-02-02T00:59:41;98420.03;;;5.27;100.00
12879;BME280;20617;49.476;10.986;2023-02-02T01:01:45;98436.50;;;5.19;100.00
12879;BME280;20617;49.476;10.986;2023-02-02T01:03:53;98439.06;;;5.21;100.00
12879;BME280;20617;49.476;10.986;2023-02-02T01:05:59;98438.34;;;5.13;100.00
12879;BME280;20617;49.476;10.986;2023-02-02T01:08:04;98468.31;;;5.20;100.00
12879;BME280;20617;49.476;10.986;2023-02-02T01:10:10;98470.84;;;5.23;100.00
12879;BME280;20617;49.476;10.986;2023-02-02T01:12:16;98472.56;;;5.22;100.00
12879;BME280;20617;49.476;10.986;2023-02-02T01:14:23;98473.41;;;5.25;100.00
12879;BME280;20617;49.476;10.986;2023-02-02T01:16:29;98486.25;;;5.28;100.00
12879;BME280;20617;49.476;10.986;2023-02-02T01:18:34;98473.25;;;5.34;100.00
12879;BME280;20617;49.476;10.986;2023-02-02T01:20:40;98489.66;;;5.30;100.00
12879;BME280;20617;49.476;10.986;2023-02-02T01:22:47;98506.00;;;5.30;100.00
12879;BME280;20617;49.476;10.986;2023-02-02T01:24:53;98501.53;;;5.40;100.00
12879;BME280;20617;49.476;10.986;2023-02-02T01:26:58;98499.63;;;5.50;100.00
12879;BME280;20617;49.476;10.986;2023-02-02T01:29:05;98484.34;;;5.39;100.00
12879;BME280;20617;49.476;10.986;2023-02-02T01:31:14;98520.16;;;5.06;100.00
12879;BME280;20617;49.476;10.986;2023-02-02T01:33:19;98511.63;;;5.01;100.00
12879;BME280;20617;49.476;10.986;2023-02-02T01:35:24;98492.00;;;4.91;100.00
12879;BME280;20617;49.476;10.986;2023-02-02T01:37:33;98535.16;;;4.80;100.00
12879;BME280;20617;49.476;10.986;2023-02-02T01:39:37;98508.03;;;4.52;100.00
12879;BME280;20617;49.476;10.986;2023-02-02T01:41:42;98526.03;;;4.57;100.00
12879;BME280;20617;49.476;10.986;2023-02-02T01:43:55;98535.47;;;4.57;100.00
12879;BME280;20617;49.476;10.986;2023-02-02T01:46:00;98551.81;;;4.56;100.00
12879;BME280;20617;49.476;10.986;2023-02-02T01:48:07;98538.38;;;4.34;100.00
12879;BME280;20617;49.476;10.986;2023-02-02T01:50:12;98568.72;;;4.08;100.00
12879;BME280;20617;49.476;10.986;2023-02-02T01:52:18;98569.72;;;3.97;100.00
12879;BME280;20617;49.476;10.986;2023-02-02T01:54:26;98568.78;;;4.01;100.00
12879;BME280;20617;49.476;10.986;2023-02-02T01:56:34;98573.03;;;4.08;100.00
12879;BME280;20617;49.476;10.986;2023-02-02T01:58:47;98570.47;;;4.06;100.00
12879;BME280;20617;49.476;10.986;2023-02-02T02:00:51;98558.63;;;3.89;100.00
12879;BME280;20617;49.476;10.986;2023-02-02T02:02:58;98589.75;;;3.67;100.00
12879;BME280;20617;49.476;10.986;2023-02-02T02:05:07;98569.22;;;3.59;100.00
12879;BME280;20617;49.476;10.986;2023-02-02T02:07:13;98559.91;;;3.46;100.00
12879;BME280;20617;49.476;10.986;2023-02-02T02:09:18;98568.56;;;3.37;100.00
12879;BME280;20617;49.476;10.986;2023-02-02T02:11:23;98570.41;;;3.18;100.00
12879;BME280;20617;49.476;10.986;2023-02-02T02:13:28;98620.34;;;2.87;100.00
12879;BME280;20617;49.476;10.986;2023-02-02T02:15:46;98629.88;;;2.65;100.00
12879;BME280;20617;49.476;10.986;2023-02-02T02:18:07;98634.22;;;2.51;100.00
12879;BME280;20617;49.476;10.986;2023-02-02T02:20:27;98615.38;;;2.48;100.00
12879;BME280;20617;49.476;10.986;2023-02-02T02:22:52;98637.66;;;2.48;100.00
12879;BME280;20617;49.476;10.986;2023-02-02T02:25:21;98629.09;;;2.38;100.00
12879;BME280;20617;49.476;10.986;2023-02-02T02:27:52;98640.25;;;2.42;100.00
12879;BME280;20617;49.476;10.986;2023-02-02T02:32:28;98632.47;;;2.62;100.00
12879;BME280;20617;49.476;10.986;2023-02-02T02:34:41;98637.56;;;2.69;100.00
12879;BME280;20617;49.476;10.986;2023-02-02T02:36:48;98624.66;;;2.79;100.00
12879;BME280;20617;49.476;10.986;2023-02-02T02:38:55;98634.13;;;2.69;100.00
12879;BME280;20617;49.476;10.986;2023-02-02T02:41:04;98637.50;;;2.79;100.00
12879;BME280;20617;49.476;10.986;2023-02-02T02:43:13;98628.03;;;2.94;100.00
12879;BME280;20617;49.476;10.986;2023-02-02T02:45:19;98636.66;;;2.81;100.00
12879;BME280;20617;49.476;10.986;2023-02-02T02:47:28;98641.84;;;2.67;100.00
12879;BME280;20617;49.476;10.986;2023-02-02T02:49:40;98647.06;;;2.52;100.00
12879;BME280;20617;49.476;10.986;2023-02-02T02:51:47;98644.50;;;2.54;100.00
12879;BME280;20617;49.476;10.986;2023-02-02T02:53:56;98646.22;;;2.48;100.00
12879;BME280;20617;49.476;10.986;2023-02-02T02:56:03;98648.78;;;2.48;100.00
12879;BME280;20617;49.476;10.986;2023-02-02T02:58:11;98642.75;;;2.60;100.00
12879;BME280;20617;49.476;10.986;2023-02-02T03:00:23;98647.00;;;2.64;100.00
12879;BME280;20617;49.476;10.986;2023-02-02T03:02:38;98648.72;;;2.65;100.00
12879;BME280;20617;49.476;10.986;2023-02-02T03:04:46;98643.63;;;2.55;100.00
12879;BME280;20617;49.476;10.986;2023-02-02T03:06:56;98653.06;;;2.43;100.00
12879;BME280;20617;49.476;10.986;2023-02-02T03:09:03;98656.50;;;2.42;100.00
12879;BME280;20617;49.476;10.986;2023-02-02T03:11:10;98650.47;;;2.49;100.00
12879;BME280;20617;49.476;10.986;2023-02-02T03:13:15;98654.78;;;2.47;100.00
12879;BME280;20617;49.476;10.986;2023-02-02T03:15:21;98655.63;;;2.49;100.00
12879;BME280;20617;49.476;10.986;2023-02-02T03:17:26;98658.19;;;2.51;100.00
12879;BME280;20617;49.476;10.986;2023-02-02T03:19:33;98660.72;;;2.59;100.00
12879;BME280;20617;49.476;10.986;2023-02-02T03:21:38;98655.59;;;2.57;100.00
12879;BME280;20617;49.476;10.986;2023-02-02T03:23:42;98663.31;;;2.62;100.00
12879;BME280;20617;49.476;10.986;2023-02-02T03:25:47;98671.03;;;2.54;100.00
12879;BME280;20617;49.476;10.986;2023-02-02T03:27:52;98671.03;;;2.51;100.00
12879;BME280;20617;49.476;10.986;2023-02-02T03:29:57;98666.75;;;2.52;100.00
12879;BME280;20617;49.476;10.986;2023-02-02T03:32:02;98662.44;;;2.61;100.00
12879;BME280;20617;49.476;10.986;2023-02-02T03:34:06;98665.88;;;2.59;100.00
12879;BME280;20617;49.476;10.986;2023-02-02T03:36:13;98664.16;;;2.58;100.00
12879;BME280;20617;49.476;10.986;2023-02-02T03:38:18;98664.19;;;2.55;100.00
12879;BME280;20617;49.476;10.986;2023-02-02T03:40:23;98677.88;;;2.60;100.00
12879;BME280;20617;49.476;10.986;2023-02-02T03:42:27;98666.72;;;2.62;100.00
12879;BME280;20617;49.476;10.986;2023-02-02T03:44:32;98665.88;;;2.62;100.00
12879;BME280;20617;49.476;10.986;2023-02-02T03:46:36;98659.88;;;2.58;100.00
12879;BME280;20617;49.476;10.986;2023-02-02T03:48:41;98652.13;;;2.67;100.00
12879;BME280;20617;49.476;10.986;2023-02-02T03:50:46;98647.88;;;2.68;100.00
12879;BME280;20617;49.476;10.986;2023-02-02T03:52:53;98653.81;;;2.75;100.00
12879;BME280;20617;49.476;10.986;2023-02-02T03:54:58;98654.69;;;2.67;100.00
12879;BME280;20617;49.476;10.986;2023-02-02T03:57:03;98648.66;;;2.76;100.00
12879;BME280;20617;49.476;10.986;2023-02-02T03:59:07;98642.69;;;2.77;100.00
12879;BME280;20617;49.476;10.986;2023-02-02T04:01:12;98649.53;;;2.80;100.00
12879;BME280;20617;49.476;10.986;2023-02-02T04:03:17;98643.50;;;2.81;100.00
12879;BME280;20617;49.476;10.986;2023-02-02T04:05:21;98645.28;;;2.71;100.00
12879;BME280;20617;49.476;10.986;2023-02-02T04:07:26;98648.69;;;2.71;100.00
12879;BME280;20617;49.476;10.986;2023-02-02T04:09:34;98654.63;;;2.81;100.00
12879;BME280;20617;49.476;10.986;2023-02-02T04:11:38;98640.03;;;2.92;100.00
12879;BME280;20617;49.476;10.986;2023-02-02T04:13:43;98633.16;;;2.94;100.00
12879;BME280;20617;49.476;10.986;2023-02-02T04:15:47;98633.09;;;3.02;100.00
12879;BME280;20617;49.476;10.986;2023-02-02T04:17:59;98618.56;;;2.98;100.00
12879;BME280;20617;49.476;10.986;2023-02-02T04:20:04;98611.66;;;3.05;100.00
12879;BME280;20617;49.476;10.986;2023-02-02T04:22:09;98613.38;;;3.09;100.00
12879;BME280;20617;49.476;10.986;2023-02-02T04:24:13;98622.72;;;3.16;100.00
12879;BME280;20617;49.476;10.986;2023-02-02T04:26:21;98621.81;;;3.26;100.00
12879;BME280;20617;49.476;10.986;2023-02-02T04:28:26;98614.94;;;3.30;100.00
12879;BME280;20617;49.476;10.986;2023-02-02T04:30:31;98621.69;;;3.45;100.00
12879;BME280;20617;49.476;10.986;2023-02-02T04:32:35;98611.44;;;3.38;100.00
12879;BME280;20617;49.476;10.986;2023-02-02T04:34:40;98626.00;;;3.39;100.00
12879;BME280;20617;49.476;10.986;2023-02-02T04:36:45;98622.56;;;3.39;100.00
12879;BME280;20617;49.476;10.986;2023-02-02T04:38:49;98621.69;;;3.42;100.00
12879;BME280;20617;49.476;10.986;2023-02-02T04:40:54;98625.94;;;3.47;100.00
12879;BME280;20617;49.476;10.986;2023-02-02T04:43:01;98639.59;;;3.57;100.00
12879;BME280;20617;49.476;10.986;2023-02-02T04:45:06;98638.63;;;3.69;100.00
12879;BME280;20617;49.476;10.986;2023-02-02T04:47:11;98649.72;;;3.78;100.00
12879;BME280;20617;49.476;10.986;2023-02-02T04:49:15;98655.69;;;3.80;100.00
12879;BME280;20617;49.476;10.986;2023-02-02T04:51:20;98664.34;;;3.76;100.00
12879;BME280;20617;49.476;10.986;2023-02-02T04:53:25;98670.47;;;3.61;100.00
12879;BME280;20617;49.476;10.986;2023-02-02T04:55:29;98668.91;;;3.37;100.00
12879;BME280;20617;49.476;10.986;2023-02-02T04:57:34;98662.19;;;3.18;100.00
12879;BME280;20617;49.476;10.986;2023-02-02T04:59:41;98646.78;;;3.10;100.00
12879;BME280;20617;49.476;10.986;2023-02-02T05:01:46;98682.81;;;3.09;100.00
12879;BME280;20617;49.476;10.986;2023-02-02T05:03:51;98667.41;;;3.01;100.00
12879;BME280;20617;49.476;10.986;2023-02-02T05:06:02;98682.78;;;3.15;100.00
12879;BME280;20617;49.476;10.986;2023-02-02T05:08:07;98681.09;;;3.06;100.00
12879;BME280;20617;49.476;10.986;2023-02-02T05:10:12;98698.19;;;3.16;100.00
12879;BME280;20617;49.476;10.986;2023-02-02T05:12:17;98704.13;;;3.29;100.00
12879;BME280;20617;49.476;10.986;2023-02-02T05:14:21;98700.63;;;3.39;100.00
12879;BME280;20617;49.476;10.986;2023-02-02T05:16:29;98699.00;;;3.25;100.00
12879;BME280;20617;49.476;10.986;2023-02-02T05:18:33;98705.94;;;3.10;100.00
12879;BME280;20617;49.476;10.986;2023-02-02T05:20:38;98705.06;;;3.13;100.00
12879;BME280;20617;49.476;10.986;2023-02-02T05:22:42;98698.22;;;3.10;100.00
12879;BME280;20617;49.476;10.986;2023-02-02T05:24:47;98708.47;;;3.21;100.00
12879;BME280;20617;49.476;10.986;2023-02-02T05:26:52;98695.59;;;3.20;100.00
12879;BME280;20617;49.476;10.986;2023-02-02T05:28:59;98700.75;;;3.21;100.00
12879;BME280;20617;49.476;10.986;2023-02-02T05:31:04;98699.03;;;3.17;100.00
12879;BME280;20617;49.476;10.986;2023-02-02T05:33:11;98702.50;;;3.10;100.00
12879;BME280;20617;49.476;10.986;2023-02-02T05:35:16;98700.81;;;3.07;100.00
12879;BME280;20617;49.476;10.986;2023-02-02T05:37:21;98697.38;;;3.05;100.00
12879;BME280;20617;49.476;10.986;2023-02-02T05:39:25;98709.41;;;3.06;100.00
12879;BME280;20617;49.476;10.986;2023-02-02T05:41:30;98712.84;;;3.01;100.00
12879;BME280;20617;49.476;10.986;2023-02-02T05:43:34;98700.84;;;2.97;100.00
12879;BME280;20617;49.476;10.986;2023-02-02T05:45:39;98713.69;;;3.01;100.00
12879;BME280;20617;49.476;10.986;2023-02-02T05:47:44;98713.72;;;2.95;100.00
12879;BME280;20617;49.476;10.986;2023-02-02T05:49:51;98712.84;;;2.96;100.00
12879;BME280;20617;49.476;10.986;2023-02-02T05:51:57;98717.16;;;2.94;100.00
12879;BME280;20617;49.476;10.986;2023-02-02T05:54:02;98728.31;;;2.91;100.00
12879;BME280;20617;49.476;10.986;2023-02-02T05:56:07;98725.75;;;2.91;100.00
12879;BME280;20617;49.476;10.986;2023-02-02T05:58:11;98723.19;;;2.85;100.00
12879;BME280;20617;49.476;10.986;2023-02-02T06:00:19;98720.63;;;2.81;100.00
12879;BME280;20617;49.476;10.986;2023-02-02T06:02:24;98735.16;;;2.88;100.00
12879;BME280;20617;49.476;10.986;2023-02-02T06:04:29;98736.06;;;2.84;100.00
12879;BME280;20617;49.476;10.986;2023-02-02T06:06:38;98738.63;;;2.85;100.00
12879;BME280;20617;49.476;10.986;2023-02-02T06:08:46;98736.91;;;2.84;100.00
12879;BME280;20617;49.476;10.986;2023-02-02T06:10:52;98731.78;;;2.81;100.00
12879;BME280;20617;49.476;10.986;2023-02-02T06:12:57;98736.09;;;2.75;100.00
12879;BME280;20617;49.476;10.986;2023-02-02T06:15:02;98738.66;;;2.75;100.00
12879;BME280;20617;49.476;10.986;2023-02-02T06:17:06;98742.88;;;2.92;100.00
12879;BME280;20617;49.476;10.986;2023-02-02T06:19:11;98747.97;;;3.05;100.00
12879;BME280;20617;49.476;10.986;2023-02-02T06:21:15;98753.94;;;3.14;100.00
12879;BME280;20617;49.476;10.986;2023-02-02T06:23:23;98741.00;;;3.25;100.00
12879;BME280;20617;49.476;10.986;2023-02-02T06:25:27;98744.41;;;3.35;100.00
12879;BME280;20617;49.476;10.986;2023-02-02T06:27:32;98745.28;;;3.32;100.00
12879;BME280;20617;49.476;10.986;2023-02-02T06:29:37;98750.38;;;3.37;100.00
12879;BME280;20617;49.476;10.986;2023-02-02T06:31:41;98747.81;;;3.37;100.00
12879;BME280;20617;49.476;10.986;2023-02-02T06:33:46;98757.19;;;3.49;100.00
12879;BME280;20617;49.476;10.986;2023-02-02T06:35:51;98741.78;;;3.39;100.00
12879;BME280;20617;49.476;10.986;2023-02-02T06:37:56;98749.47;;;3.46;100.00
12879;BME280;20617;49.476;10.986;2023-02-02T06:40:04;98736.59;;;3.50;100.00
12879;BME280;20617;49.476;10.986;2023-02-02T06:42:08;98747.78;;;3.45;100.00
12879;BME280;20617;49.476;10.986;2023-02-02T06:44:21;98743.50;;;3.42;100.00
12879;BME280;20617;49.476;10.986;2023-02-02T06:46:26;98748.69;;;3.34;100.00
12879;BME280;20617;49.476;10.986;2023-02-02T06:48:31;98744.38;;;3.36;100.00
12879;BME280;20617;49.476;10.986;2023-02-02T06:50:35;98751.25;;;3.34;100.00
12879;BME280;20617;49.476;10.986;2023-02-02T06:52:45;98747.00;;;3.35;100.00
12879;BME280;20617;49.476;10.986;2023-02-02T06:54:50;98748.66;;;3.44;100.00
12879;BME280;20617;49.476;10.986;2023-02-02T06:56:57;98751.19;;;3.45;100.00
12879;BME280;20617;49.476;10.986;2023-02-02T06:59:02;98748.69;;;3.40;100.00
12879;BME280;20617;49.476;10.986;2023-02-02T07:01:08;98756.41;;;3.37;100.00
12879;BME280;20617;49.476;10.986;2023-02-02T07:03:12;98759.84;;;3.36;100.00
12879;BME280;20617;49.476;10.986;2023-02-02T07:05:18;98761.56;;;3.31;100.00
12879;BME280;20617;49.476;10.986;2023-02-02T07:07:25;98762.38;;;3.39;100.00
12879;BME280;20617;49.476;10.986;2023-02-02T07:09:30;98758.97;;;3.40;100.00
12879;BME280;20617;49.476;10.986;2023-02-02T07:11:35;98756.38;;;3.39;100.00
12879;BME280;20617;49.476;10.986;2023-02-02T07:13:48;98756.41;;;3.34;100.00
12879;BME280;20617;49.476;10.986;2023-02-02T07:15:53;98762.44;;;3.35;100.00
12879;BME280;20617;49.476;10.986;2023-02-02T07:17:58;98777.88;;;3.32;100.00
12879;BME280;20617;49.476;10.986;2023-02-02T07:20:03;98772.72;;;3.30;100.00
12879;BME280;20617;49.476;10.986;2023-02-02T07:22:08;98763.28;;;3.35;100.00
12879;BME280;20617;49.476;10.986;2023-02-02T07:24:13;98769.28;;;3.31;100.00
12879;BME280;20617;49.476;10.986;2023-02-02T07:26:17;98764.97;;;3.39;100.00
12879;BME280;20617;49.476;10.986;2023-02-02T07:28:22;98780.34;;;3.50;100.00
12879;BME280;20617;49.476;10.986;2023-02-02T07:30:29;98778.69;;;3.38;100.00
12879;BME280;20617;49.476;10.986;2023-02-02T07:32:34;98778.63;;;3.55;100.00
12879;BME280;20617;49.476;10.986;2023-02-02T07:34:39;98776.03;;;3.57;100.00
12879;BME280;20617;49.476;10.986;2023-02-02T07:36:44;98767.41;;;3.64;100.00
12879;BME280;20617;49.476;10.986;2023-02-02T07:38:50;98768.22;;;3.71;100.00
12879;BME280;20617;49.476;10.986;2023-02-02T07:40:55;98762.22;;;3.69;100.00
12879;BME280;20617;49.476;10.986;2023-02-02T07:42:59;98760.50;;;3.69;100.00
12879;BME280;20617;49.476;10.986;2023-02-02T07:45:05;98761.34;;;3.76;100.00
12879;BME280;20617;49.476;10.986;2023-02-02T07:47:32;98753.56;;;3.80;100.00
12879;BME280;20617;49.476;10.986;2023-02-02T07:49:37;98759.50;;;3.93;100.00
12879;BME280;20617;49.476;10.986;2023-02-02T07:51:42;98751.72;;;3.99;100.00
12879;BME280;20617;49.476;10.986;2023-02-02T07:53:50;98743.97;;;4.02;100.00
12879;BME280;20617;49.476;10.986;2023-02-02T07:56:03;98748.22;;;4.08;100.00
12879;BME280;20617;49.476;10.986;2023-02-02T07:58:08;98747.34;;;4.09;100.00
12879;BME280;20617;49.476;10.986;2023-02-02T08:00:13;98750.69;;;4.16;100.00
12879;BME280;20617;49.476;10.986;2023-02-02T08:02:18;98751.53;;;4.21;100.00
12879;BME280;20617;49.476;10.986;2023-02-02T08:04:25;98763.41;;;4.36;100.00
12879;BME280;20617;49.476;10.986;2023-02-02T08:06:31;98764.22;;;4.45;100.00
12879;BME280;20617;49.476;10.986;2023-02-02T08:08:36;98743.56;;;4.48;100.00
12879;BME280;20617;49.476;10.986;2023-02-02T08:10:46;98746.13;;;4.47;100.00
12879;BME280;20617;49.476;10.986;2023-02-02T08:12:50;98752.94;;;4.56;100.00
12879;BME280;20617;49.476;10.986;2023-02-02T08:14:55;98743.47;;;4.58;100.00
12879;BME280;20617;49.476;10.986;2023-02-02T08:17:00;98749.47;;;4.57;100.00
12879;BME280;20617;49.476;10.986;2023-02-02T08:19:04;98743.50;;;4.53;100.00
12879;BME280;20617;49.476;10.986;2023-02-02T08:21:11;98733.25;;;4.47;100.00
12879;BME280;20617;49.476;10.986;2023-02-02T08:23:16;98745.31;;;4.42;100.00
12879;BME280;20617;49.476;10.986;2023-02-02T08:25:24;98749.72;;;4.32;100.00
12879;BME280;20617;49.476;10.986;2023-02-02T08:27:28;98754.00;;;4.35;100.00
12879;BME280;20617;49.476;10.986;2023-02-02T08:29:33;98750.53;;;4.36;100.00
12879;BME280;20617;49.476;10.986;2023-02-02T08:31:39;98754.91;;;4.30;100.00
12879;BME280;20617;49.476;10.986;2023-02-02T08:33:44;98754.03;;;4.30;100.00
12879;BME280;20617;49.476;10.986;2023-02-02T08:35:49;98752.34;;;4.24;100.00
12879;BME280;20617;49.476;10.986;2023-02-02T08:37:56;98748.94;;;4.21;100.00
12879;BME280;20617;49.476;10.986;2023-02-02T08:40:04;98756.59;;;4.30;100.00
12879;BME280;20617;49.476;10.986;2023-02-02T08:42:09;98753.16;;;4.29;100.00
12879;BME280;20617;49.476;10.986;2023-02-02T08:44:14;98749.81;;;4.18;100.00
12879;BME280;20617;49.476;10.986;2023-02-02T08:46:20;98754.94;;;4.21;100.00
12879;BME280;20617;49.476;10.986;2023-02-02T08:48:25;98754.97;;;4.20;100.00
12879;BME280;20617;49.476;10.986;2023-02-02T08:50:29;98755.84;;;4.17;100.00
12879;BME280;20617;49.476;10.986;2023-02-02T08:52:34;98757.63;;;4.11;100.00
12879;BME280;20617;49.476;10.986;2023-02-02T08:54:41;98758.50;;;4.06;100.00
12879;BME280;20617;49.476;10.986;2023-02-02T08:56:46;98762.78;;;4.11;100.00
12879;BME280;20617;49.476;10.986;2023-02-02T08:58:51;98761.91;;;4.10;100.00
12879;BME280;20617;49.476;10.986;2023-02-02T09:01:02;98762.00;;;4.02;100.00
12879;BME280;20617;49.476;10.986;2023-02-02T09:03:07;98765.50;;;3.92;100.00
12879;BME280;20617;49.476;10.986;2023-02-02T09:05:11;98759.50;;;3.92;100.00
12879;BME280;20617;49.476;10.986;2023-02-02T09:07:16;98760.34;;;3.89;100.00
12879;BME280;20617;49.476;10.986;2023-02-02T09:09:21;98762.91;;;3.94;100.00
12879;BME280;20617;49.476;10.986;2023-02-02T09:11:29;98768.06;;;3.92;100.00
12879;BME280;20617;49.476;10.986;2023-02-02T09:13:34;98763.00;;;3.81;100.00
12879;BME280;20617;49.476;10.986;2023-02-02T09:15:38;98768.97;;;3.88;100.00
12879;BME280;20617;49.476;10.986;2023-02-02T09:17:43;98755.22;;;3.86;100.00
12879;BME280;20617;49.476;10.986;2023-02-02T09:19:47;98769.84;;;3.87;100.00
12879;BME280;20617;49.476;10.986;2023-02-02T09:21:52;98758.63;;;3.93;100.00
12879;BME280;20617;49.476;10.986;2023-02-02T09:23:56;98756.00;;;3.97;100.00
12879;BME280;20617;49.476;10.986;2023-02-02T09:26:11;98763.78;;;3.96;100.00
12879;BME280;20617;49.476;10.986;2023-02-02T09:28:18;98757.81;;;3.88;100.00
12879;BME280;20617;49.476;10.986;2023-02-02T09:30:23;98764.69;;;3.85;100.00
12879;BME280;20617;49.476;10.986;2023-02-02T09:32:27;98758.69;;;3.80;100.00
12879;BME280;20617;49.476;10.986;2023-02-02T09:34:32;98763.84;;;3.80;100.00
12879;BME280;20617;49.476;10.986;2023-02-02T09:36:37;98760.44;;;3.80;100.00
12879;BME280;20617;49.476;10.986;2023-02-02T09:38:42;98760.41;;;3.84;100.00
12879;BME280;20617;49.476;10.986;2023-02-02T09:40:46;98762.91;;;3.92;100.00
12879;BME280;20617;49.476;10.986;2023-02-02T09:42:53;98758.63;;;3.90;100.00
12879;BME280;20617;49.476;10.986;2023-02-02T09:45:06;98764.66;;;3.90;100.00
12879;BME280;20617;49.476;10.986;2023-02-02T09:47:13;98761.22;;;3.93;100.00
12879;BME280;20617;49.476;10.986;2023-02-02T09:49:20;98774.06;;;3.96;100.00
12879;BME280;20617;49.476;10.986;2023-02-02T09:51:27;98775.75;;;4.00;100.00
12879;BME280;20617;49.476;10.986;2023-02-02T09:53:36;98776.53;;;4.09;100.00
12879;BME280;20617;49.476;10.986;2023-02-02T09:55:56;98767.88;;;4.15;100.00
12879;BME280;20617;49.476;10.986;2023-02-02T09:58:05;98777.28;;;4.25;100.00
12879;BME280;20617;49.476;10.986;2023-02-02T10:00:18;98773.78;;;4.29;100.00
12879;BME280;20617;49.476;10.986;2023-02-02T10:02:28;98771.13;;;4.39;100.00
12879;BME280;20617;49.476;10.986;2023-02-02T10:04:35;98769.41;;;4.42;100.00
12879;BME280;20617;49.476;10.986;2023-02-02T10:06:42;98779.66;;;4.48;100.00
12879;BME280;20617;49.476;10.986;2023-02-02T10:08:49;98778.78;;;4.48;100.00
12879;BME280;20617;49.476;10.986;2023-02-02T10:10:56;98771.81;;;4.56;100.00
12879;BME280;20617;49.476;10.986;2023-02-02T10:13:02;98778.63;;;4.66;100.00
12879;BME280;20617;49.476;10.986;2023-02-02T10:15:10;98775.25;;;4.58;100.00
12879;BME280;20617;49.476;10.986;2023-02-02T10:17:34;98781.19;;;4.65;100.00
12879;BME280;20617;49.476;10.986;2023-02-02T10:19:39;98789.63;;;4.82;100.00
12879;BME280;20617;49.476;10.986;2023-02-02T10:21:45;98789.44;;;4.99;100.00
12879;BME280;20617;49.476;10.986;2023-02-02T10:23:52;98787.56;;;5.13;100.00
12879;BME280;20617;49.476;10.986;2023-02-02T10:26:01;98789.19;;;5.22;100.00
12879;BME280;20617;49.476;10.986;2023-02-02T10:28:10;98785.63;;;5.31;100.00
12879;BME280;20617;49.476;10.986;2023-02-02T10:30:21;98781.22;;;5.39;100.00
12879;BME280;20617;49.476;10.986;2023-02-02T10:32:32;98786.22;;;5.50;100.00
12879;BME280;20617;49.476;10.986;2023-02-02T10:34:40;98772.38;;;5.57;100.00
12879;BME280;20617;49.476;10.986;2023-02-02T10:36:46;98773.25;;;5.56;100.00
12879;BME280;20617;49.476;10.986;2023-02-02T10:38:55;98776.56;;;5.64;100.00
12879;BME280;20617;49.476;10.986;2023-02-02T10:41:06;98772.25;;;5.67;100.00
12879;BME280;20617;49.476;10.986;2023-02-02T10:43:25;98770.41;;;5.74;100.00
12879;BME280;20617;49.476;10.986;2023-02-02T10:45:46;98767.84;;;5.74;100.00
12879;BME280;20617;49.476;10.986;2023-02-02T10:47:55;98776.34;;;5.81;100.00
12879;BME280;20617;49.476;10.986;2023-02-02T10:50:01;98768.56;;;5.82;100.00
12879;BME280;20617;49.476;10.986;2023-02-02T10:52:12;98759.03;;;5.86;100.00
12879;BME280;20617;49.476;10.986;2023-02-02T10:56:57;98761.56;;;5.94;100.00
12879;BME280;20617;49.476;10.986;2023-02-02T10:59:05;98756.34;;;5.95;100.00
12879;BME280;20617;49.476;10.986;2023-02-02T11:01:10;98756.34;;;5.95;100.00
12879;BME280;20617;49.476;10.986;2023-02-02T11:03:22;98756.16;;;6.07;100.00
12879;BME280;20617;49.476;10.986;2023-02-02T11:05:29;98750.09;;;6.10;100.00
12879;BME280;20617;49.476;10.986;2023-02-02T11:07:47;98756.97;;;6.11;100.00